sensor_id;sensor_type;location;lat;lon;timestamp;temperature;humidity
3298;DHT22;1661;53.572;10.174;2024-02-04T00:00:24;8.10;82.80
3298;DHT22;1661;53.572;10.174;2024-02-04T00:02:51;8.00;82.60
3298;DHT22;1661;53.572;10.174;2024-02-04T00:05:20;7.90;82.80
3298;DHT22;1661;53.572;10.174;2024-02-04T00:07:47;8.00;83.00
3298;DHT22;1661;53.572;10.174;2024-02-04T00:10:16;7.90;82.80
3298;DHT22;1661;53.572;10.174;2024-02-04T00:12:43;7.90;82.80
3298;DHT22;1661;53.572;10.174;2024-02-04T00:15:10;7.90;82.80
3298;DHT22;1661;53.572;10.174;2024-02-04T00:17:37;7.90;82.80
3298;DHT22;1661;53.572;10.174;2024-02-04T00:20:05;7.90;82.60
3298;DHT22;1661;53.572;10.174;2024-02-04T00:22:34;7.90;82.80
3298;DHT22;1661;53.572;10.174;2024-02-04T00:25:01;7.90;82.60
3298;DHT22;1661;53.572;10.174;2024-02-04T00:27:30;7.80;82.80
3298;DHT22;1661;53.572;10.174;2024-02-04T00:29:57;7.80;82.90
3298;DHT22;1661;53.572;10.174;2024-02-04T00:32:24;7.80;83.00
3298;DHT22;1661;53.572;10.174;2024-02-04T00:34:51;7.80;83.10
3298;DHT22;1661;53.572;10.174;2024-02-04T00:37:18;7.80;83.00
3298;DHT22;1661;53.572;10.174;2024-02-04T00:39:46;7.90;82.80
3298;DHT22;1661;53.572;10.174;2024-02-04T00:42:12;7.80;83.10
3298;DHT22;1661;53.572;10.174;2024-02-04T00:44:38;7.80;83.20
3298;DHT22;1661;53.572;10.174;2024-02-04T00:47:05;7.80;83.20
3298;DHT22;1661;53.572;10.174;2024-02-04T00:49:32;7.70;83.30
3298;DHT22;1661;53.572;10.174;2024-02-04T00:51:59;7.70;83.70
3298;DHT22;1661;53.572;10.174;2024-02-04T00:54:26;7.70;83.80
3298;DHT22;1661;53.572;10.174;2024-02-04T00:56:54;7.70;83.70
3298;DHT22;1661;53.572;10.174;2024-02-04T00:59:20;7.70;83.70
3298;DHT22;1661;53.572;10.174;2024-02-04T01:01:47;7.70;83.90
3298;DHT22;1661;53.572;10.174;2024-02-04T01:04:14;7.70;84.00
3298;DHT22;1661;53.572;10.174;2024-02-04T01:06:41;7.60;84.00
3298;DHT22;1661;53.572;10.174;2024-02-04T01:09:08;7.50;84.20
3298;DHT22;1661;53.572;10.174;2024-02-04T01:11:35;7.60;84.30
3298;DHT22;1661;53.572;10.174;2024-02-04T01:14:03;7.60;84.30
3298;DHT22;1661;53.572;10.174;2024-02-04T01:16:30;7.60;84.10
3298;DHT22;1661;53.572;10.174;2024-02-04T01:18:56;7.60;84.20
3298;DHT22;1661;53.572;10.174;2024-02-04T01:21:23;7.50;84.20
3298;DHT22;1661;53.572;10.174;2024-02-04T01:23:51;7.50;84.60
3298;DHT22;1661;53.572;10.174;2024-02-04T01:26:18;7.60;84.60
3298;DHT22;1661;53.572;10.174;2024-02-04T01:28:44;7.50;84.70
3298;DHT22;1661;53.572;10.174;2024-02-04T01:31:12;7.50;84.70
3298;DHT22;1661;53.572;10.174;2024-02-04T01:33:39;7.50;84.70
3298;DHT22;1661;53.572;10.174;2024-02-04T01:36:06;7.60;84.50
3298;DHT22;1661;53.572;10.174;2024-02-04T01:38:33;7.60;84.50
3298;DHT22;1661;53.572;10.174;2024-02-04T01:41:00;7.60;84.60
3298;DHT22;1661;53.572;10.174;2024-02-04T01:43:27;7.60;84.50
3298;DHT22;1661;53.572;10.174;2024-02-04T01:45:53;7.70;84.40
3298;DHT22;1661;53.572;10.174;2024-02-04T01:48:22;7.60;84.60
3298;DHT22;1661;53.572;10.174;2024-02-04T01:50:50;7.60;84.50
3298;DHT22;1661;53.572;10.174;2024-02-04T01:53:17;7.70;84.40
3298;DHT22;1661;53.572;10.174;2024-02-04T01:55:46;7.70;84.10
3298;DHT22;1661;53.572;10.174;2024-02-04T01:58:13;7.70;84.20
3298;DHT22;1661;53.572;10.174;2024-02-04T02:00:40;7.70;84.10
3298;DHT22;1661;53.572;10.174;2024-02-04T02:03:10;7.80;84.10
3298;DHT22;1661;53.572;10.174;2024-02-04T02:05:39;7.80;83.80
3298;DHT22;1661;53.572;10.174;2024-02-04T02:08:06;7.80;83.80
3298;DHT22;1661;53.572;10.174;2024-02-04T02:10:33;7.80;83.90
3298;DHT22;1661;53.572;10.174;2024-02-04T02:13:06;7.70;84.20
3298;DHT22;1661;53.572;10.174;2024-02-04T02:15:35;7.80;84.20
3298;DHT22;1661;53.572;10.174;2024-02-04T02:18:08;7.70;84.20
3298;DHT22;1661;53.572;10.174;2024-02-04T02:20:46;7.80;84.30
3298;DHT22;1661;53.572;10.174;2024-02-04T02:23:22;7.80;84.30
3298;DHT22;1661;53.572;10.174;2024-02-04T02:25:56;7.90;84.20
3298;DHT22;1661;53.572;10.174;2024-02-04T02:28:23;7.90;83.80
3298;DHT22;1661;53.572;10.174;2024-02-04T02:30:50;7.90;83.80
3298;DHT22;1661;53.572;10.174;2024-02-04T02:33:16;8.00;83.60
3298;DHT22;1661;53.572;10.174;2024-02-04T02:35:44;7.90;83.70
3298;DHT22;1661;53.572;10.174;2024-02-04T02:38:20;7.90;83.60
3298;DHT22;1661;53.572;10.174;2024-02-04T02:40:54;8.00;83.70
3298;DHT22;1661;53.572;10.174;2024-02-04T02:43:23;8.00;83.60
3298;DHT22;1661;53.572;10.174;2024-02-04T02:45:50;8.00;83.30
3298;DHT22;1661;53.572;10.174;2024-02-04T02:48:17;8.00;83.20
3298;DHT22;1661;53.572;10.174;2024-02-04T02:50:44;8.00;83.10
3298;DHT22;1661;53.572;10.174;2024-02-04T02:53:11;8.00;83.20
3298;DHT22;1661;53.572;10.174;2024-02-04T02:55:38;8.00;83.00
3298;DHT22;1661;53.572;10.174;2024-02-04T02:58:06;8.00;82.70
3298;DHT22;1661;53.572;10.174;2024-02-04T03:00:34;7.90;82.80
3298;DHT22;1661;53.572;10.174;2024-02-04T03:03:01;7.70;83.30
3298;DHT22;1661;53.572;10.174;2024-02-04T03:05:27;7.80;83.40
3298;DHT22;1661;53.572;10.174;2024-02-04T03:07:54;7.90;83.00
3298;DHT22;1661;53.572;10.174;2024-02-04T03:10:21;7.80;83.40
3298;DHT22;1661;53.572;10.174;2024-02-04T03:12:48;7.80;83.40
3298;DHT22;1661;53.572;10.174;2024-02-04T03:15:15;7.80;83.10
3298;DHT22;1661;53.572;10.174;2024-02-04T03:17:44;7.80;83.10
3298;DHT22;1661;53.572;10.174;2024-02-04T03:20:11;7.80;83.30
3298;DHT22;1661;53.572;10.174;2024-02-04T03:22:38;7.80;83.30
3298;DHT22;1661;53.572;10.174;2024-02-04T03:25:05;7.80;83.20
3298;DHT22;1661;53.572;10.174;2024-02-04T03:27:32;7.80;82.90
3298;DHT22;1661;53.572;10.174;2024-02-04T03:29:59;7.70;83.00
3298;DHT22;1661;53.572;10.174;2024-02-04T03:32:26;7.70;83.30
3298;DHT22;1661;53.572;10.174;2024-02-04T03:34:56;7.80;83.30
3298;DHT22;1661;53.572;10.174;2024-02-04T03:37:22;7.80;82.80
3298;DHT22;1661;53.572;10.174;2024-02-04T03:39:49;7.80;83.00
3298;DHT22;1661;53.572;10.174;2024-02-04T03:42:16;7.70;83.20
3298;DHT22;1661;53.572;10.174;2024-02-04T03:44:43;7.80;83.10
3298;DHT22;1661;53.572;10.174;2024-02-04T03:47:10;7.80;82.90
3298;DHT22;1661;53.572;10.174;2024-02-04T03:49:37;7.80;82.80
3298;DHT22;1661;53.572;10.174;2024-02-04T03:52:05;7.90;82.70
3298;DHT22;1661;53.572;10.174;2024-02-04T03:54:32;7.80;82.70
3298;DHT22;1661;53.572;10.174;2024-02-04T03:56:59;7.80;82.70
3298;DHT22;1661;53.572;10.174;2024-02-04T03:59:26;7.80;82.90
3298;DHT22;1661;53.572;10.174;2024-02-04T04:01:52;7.80;82.80
3298;DHT22;1661;53.572;10.174;2024-02-04T04:04:20;7.70;82.70
3298;DHT22;1661;53.572;10.174;2024-02-04T04:06:47;7.70;82.90
3298;DHT22;1661;53.572;10.174;2024-02-04T04:09:15;7.70;83.10
3298;DHT22;1661;53.572;10.174;2024-02-04T04:11:42;7.80;83.00
3298;DHT22;1661;53.572;10.174;2024-02-04T04:14:09;7.80;82.90
3298;DHT22;1661;53.572;10.174;2024-02-04T04:16:35;7.70;83.20
3298;DHT22;1661;53.572;10.174;2024-02-04T04:19:04;7.60;83.70
3298;DHT22;1661;53.572;10.174;2024-02-04T04:21:30;7.60;83.90
3298;DHT22;1661;53.572;10.174;2024-02-04T04:23:57;7.50;84.30
3298;DHT22;1661;53.572;10.174;2024-02-04T04:26:25;7.50;84.30
3298;DHT22;1661;53.572;10.174;2024-02-04T04:28:52;7.60;84.20
3298;DHT22;1661;53.572;10.174;2024-02-04T04:31:19;7.50;84.10
3298;DHT22;1661;53.572;10.174;2024-02-04T04:33:46;7.60;84.50
3298;DHT22;1661;53.572;10.174;2024-02-04T04:36:13;7.40;84.80
3298;DHT22;1661;53.572;10.174;2024-02-04T04:38:39;7.50;84.90
3298;DHT22;1661;53.572;10.174;2024-02-04T04:41:06;7.50;85.00
3298;DHT22;1661;53.572;10.174;2024-02-04T04:43:36;7.50;84.90
3298;DHT22;1661;53.572;10.174;2024-02-04T04:46:03;7.50;85.10
3298;DHT22;1661;53.572;10.174;2024-02-04T04:48:33;7.50;84.90
3298;DHT22;1661;53.572;10.174;2024-02-04T04:51:00;7.50;85.30
3298;DHT22;1661;53.572;10.174;2024-02-04T04:53:26;7.50;85.40
3298;DHT22;1661;53.572;10.174;2024-02-04T04:55:53;7.40;85.80
3298;DHT22;1661;53.572;10.174;2024-02-04T04:58:20;7.40;85.90
3298;DHT22;1661;53.572;10.174;2024-02-04T05:00:48;7.30;86.10
3298;DHT22;1661;53.572;10.174;2024-02-04T05:03:15;7.40;86.30
3298;DHT22;1661;53.572;10.174;2024-02-04T05:05:42;7.40;86.20
3298;DHT22;1661;53.572;10.174;2024-02-04T05:08:09;7.30;86.30
3298;DHT22;1661;53.572;10.174;2024-02-04T05:10:35;7.30;86.40
3298;DHT22;1661;53.572;10.174;2024-02-04T05:13:02;7.30;86.60
3298;DHT22;1661;53.572;10.174;2024-02-04T05:15:29;7.20;86.90
3298;DHT22;1661;53.572;10.174;2024-02-04T05:17:57;7.30;86.90
3298;DHT22;1661;53.572;10.174;2024-02-04T05:20:24;7.20;86.90
3298;DHT22;1661;53.572;10.174;2024-02-04T05:22:51;7.20;87.00
3298;DHT22;1661;53.572;10.174;2024-02-04T05:25:19;7.20;87.10
3298;DHT22;1661;53.572;10.174;2024-02-04T05:27:46;7.20;87.00
3298;DHT22;1661;53.572;10.174;2024-02-04T05:30:14;7.20;87.10
3298;DHT22;1661;53.572;10.174;2024-02-04T05:32:41;7.20;87.10
3298;DHT22;1661;53.572;10.174;2024-02-04T05:35:11;7.20;86.90
3298;DHT22;1661;53.572;10.174;2024-02-04T05:37:38;7.20;87.00
3298;DHT22;1661;53.572;10.174;2024-02-04T05:40:06;7.30;86.90
3298;DHT22;1661;53.572;10.174;2024-02-04T05:42:33;7.40;86.80
3298;DHT22;1661;53.572;10.174;2024-02-04T05:45:00;7.40;86.30
3298;DHT22;1661;53.572;10.174;2024-02-04T05:47:27;7.40;86.20
3298;DHT22;1661;53.572;10.174;2024-02-04T05:49:54;7.30;86.30
3298;DHT22;1661;53.572;10.174;2024-02-04T05:52:22;7.30;86.50
3298;DHT22;1661;53.572;10.174;2024-02-04T05:54:49;7.10;87.30
3298;DHT22;1661;53.572;10.174;2024-02-04T05:57:15;7.10;87.40
3298;DHT22;1661;53.572;10.174;2024-02-04T05:59:42;7.00;87.50
3298;DHT22;1661;53.572;10.174;2024-02-04T06:02:09;7.00;87.90
3298;DHT22;1661;53.572;10.174;2024-02-04T06:04:37;7.00;87.70
3298;DHT22;1661;53.572;10.174;2024-02-04T06:07:05;7.00;87.70
3298;DHT22;1661;53.572;10.174;2024-02-04T06:09:33;7.00;87.60
3298;DHT22;1661;53.572;10.174;2024-02-04T06:12:00;7.00;87.80
3298;DHT22;1661;53.572;10.174;2024-02-04T06:14:27;7.10;87.80
3298;DHT22;1661;53.572;10.174;2024-02-04T06:16:53;7.10;87.70
3298;DHT22;1661;53.572;10.174;2024-02-04T06:19:20;7.10;87.50
3298;DHT22;1661;53.572;10.174;2024-02-04T06:21:47;7.10;87.80
3298;DHT22;1661;53.572;10.174;2024-02-04T06:24:14;7.10;87.60
3298;DHT22;1661;53.572;10.174;2024-02-04T06:26:42;7.10;87.60
3298;DHT22;1661;53.572;10.174;2024-02-04T06:29:08;7.00;87.70
3298;DHT22;1661;53.572;10.174;2024-02-04T06:31:35;7.10;87.60
3298;DHT22;1661;53.572;10.174;2024-02-04T06:34:02;7.10;87.40
3298;DHT22;1661;53.572;10.174;2024-02-04T06:36:29;7.10;87.50
3298;DHT22;1661;53.572;10.174;2024-02-04T06:38:55;7.10;87.60
3298;DHT22;1661;53.572;10.174;2024-02-04T06:41:22;7.10;87.60
3298;DHT22;1661;53.572;10.174;2024-02-04T06:43:50;7.20;87.10
3298;DHT22;1661;53.572;10.174;2024-02-04T06:46:24;7.20;86.90
3298;DHT22;1661;53.572;10.174;2024-02-04T06:48:51;7.10;86.90
3298;DHT22;1661;53.572;10.174;2024-02-04T06:51:18;7.20;86.90
3298;DHT22;1661;53.572;10.174;2024-02-04T06:53:45;7.20;86.70
3298;DHT22;1661;53.572;10.174;2024-02-04T06:56:11;7.30;86.30
3298;DHT22;1661;53.572;10.174;2024-02-04T06:58:38;7.20;86.30
3298;DHT22;1661;53.572;10.174;2024-02-04T07:01:07;7.20;86.30
3298;DHT22;1661;53.572;10.174;2024-02-04T07:03:34;7.20;86.50
3298;DHT22;1661;53.572;10.174;2024-02-04T07:06:01;7.20;86.20
3298;DHT22;1661;53.572;10.174;2024-02-04T07:08:28;7.20;86.40
3298;DHT22;1661;53.572;10.174;2024-02-04T07:10:55;7.20;85.90
3298;DHT22;1661;53.572;10.174;2024-02-04T07:13:21;7.20;86.20
3298;DHT22;1661;53.572;10.174;2024-02-04T07:15:48;7.20;85.90
3298;DHT22;1661;53.572;10.174;2024-02-04T07:18:16;7.10;86.20
3298;DHT22;1661;53.572;10.174;2024-02-04T07:20:47;7.20;86.30
3298;DHT22;1661;53.572;10.174;2024-02-04T07:23:14;7.20;86.20
3298;DHT22;1661;53.572;10.174;2024-02-04T07:25:41;7.20;86.20
3298;DHT22;1661;53.572;10.174;2024-02-04T07:28:08;7.20;86.00
3298;DHT22;1661;53.572;10.174;2024-02-04T07:30:35;7.30;86.00
3298;DHT22;1661;53.572;10.174;2024-02-04T07:33:01;7.30;85.90
3298;DHT22;1661;53.572;10.174;2024-02-04T07:35:30;7.30;85.90
3298;DHT22;1661;53.572;10.174;2024-02-04T07:37:57;7.30;85.90
3298;DHT22;1661;53.572;10.174;2024-02-04T07:40:24;7.40;85.80
3298;DHT22;1661;53.572;10.174;2024-02-04T07:42:50;7.30;85.70
3298;DHT22;1661;53.572;10.174;2024-02-04T07:45:18;7.30;85.80
3298;DHT22;1661;53.572;10.174;2024-02-04T07:47:44;7.30;85.90
3298;DHT22;1661;53.572;10.174;2024-02-04T07:50:12;7.30;85.80
3298;DHT22;1661;53.572;10.174;2024-02-04T07:52:40;7.30;85.60
3298;DHT22;1661;53.572;10.174;2024-02-04T07:55:07;7.40;85.40
3298;DHT22;1661;53.572;10.174;2024-02-04T07:57:34;7.50;85.20
3298;DHT22;1661;53.572;10.174;2024-02-04T08:00:01;7.40;85.40
3298;DHT22;1661;53.572;10.174;2024-02-04T08:02:30;7.30;85.60
3298;DHT22;1661;53.572;10.174;2024-02-04T08:04:57;7.40;85.50
3298;DHT22;1661;53.572;10.174;2024-02-04T08:07:25;7.40;85.30
3298;DHT22;1661;53.572;10.174;2024-02-04T08:09:53;7.40;85.40
3298;DHT22;1661;53.572;10.174;2024-02-04T08:12:20;7.50;85.30
3298;DHT22;1661;53.572;10.174;2024-02-04T08:14:47;7.40;85.30
3298;DHT22;1661;53.572;10.174;2024-02-04T08:17:14;7.50;85.40
3298;DHT22;1661;53.572;10.174;2024-02-04T08:19:41;7.40;85.30
3298;DHT22;1661;53.572;10.174;2024-02-04T08:22:08;7.50;85.30
3298;DHT22;1661;53.572;10.174;2024-02-04T08:24:34;7.60;85.10
3298;DHT22;1661;53.572;10.174;2024-02-04T08:27:03;7.60;85.00
3298;DHT22;1661;53.572;10.174;2024-02-04T08:29:30;7.60;84.90
3298;DHT22;1661;53.572;10.174;2024-02-04T08:31:57;7.60;84.90
3298;DHT22;1661;53.572;10.174;2024-02-04T08:34:24;7.50;85.10
3298;DHT22;1661;53.572;10.174;2024-02-04T08:36:51;7.50;85.10
3298;DHT22;1661;53.572;10.174;2024-02-04T08:39:18;7.50;85.10
3298;DHT22;1661;53.572;10.174;2024-02-04T08:41:45;7.50;85.20
3298;DHT22;1661;53.572;10.174;2024-02-04T08:44:13;7.50;85.10
3298;DHT22;1661;53.572;10.174;2024-02-04T08:46:40;7.50;85.20
3298;DHT22;1661;53.572;10.174;2024-02-04T08:49:06;7.70;85.20
3298;DHT22;1661;53.572;10.174;2024-02-04T08:51:33;7.70;84.70
3298;DHT22;1661;53.572;10.174;2024-02-04T08:54:00;7.70;84.50
3298;DHT22;1661;53.572;10.174;2024-02-04T08:56:27;7.70;84.50
3298;DHT22;1661;53.572;10.174;2024-02-04T08:58:53;7.70;84.60
3298;DHT22;1661;53.572;10.174;2024-02-04T09:01:22;7.70;84.60
3298;DHT22;1661;53.572;10.174;2024-02-04T09:03:49;7.60;84.80
3298;DHT22;1661;53.572;10.174;2024-02-04T09:06:15;7.60;84.40
3298;DHT22;1661;53.572;10.174;2024-02-04T09:08:42;7.70;84.50
3298;DHT22;1661;53.572;10.174;2024-02-04T09:11:09;7.70;84.20
3298;DHT22;1661;53.572;10.174;2024-02-04T09:13:36;7.60;84.60
3298;DHT22;1661;53.572;10.174;2024-02-04T09:16:02;7.70;84.60
3298;DHT22;1661;53.572;10.174;2024-02-04T09:18:31;7.80;84.50
3298;DHT22;1661;53.572;10.174;2024-02-04T09:20:58;7.90;84.00
3298;DHT22;1661;53.572;10.174;2024-02-04T09:23:25;7.90;83.60
3298;DHT22;1661;53.572;10.174;2024-02-04T09:25:51;7.90;83.50
3298;DHT22;1661;53.572;10.174;2024-02-04T09:28:18;7.90;83.50
3298;DHT22;1661;53.572;10.174;2024-02-04T09:30:45;7.90;83.20
3298;DHT22;1661;53.572;10.174;2024-02-04T09:33:13;7.90;83.30
3298;DHT22;1661;53.572;10.174;2024-02-04T09:35:41;7.90;83.20
3298;DHT22;1661;53.572;10.174;2024-02-04T09:38:09;7.80;83.40
3298;DHT22;1661;53.572;10.174;2024-02-04T09:40:37;7.90;83.60
3298;DHT22;1661;53.572;10.174;2024-02-04T09:43:04;8.00;83.60
3298;DHT22;1661;53.572;10.174;2024-02-04T09:45:31;8.10;83.10
3298;DHT22;1661;53.572;10.174;2024-02-04T09:47:58;8.10;83.10
3298;DHT22;1661;53.572;10.174;2024-02-04T09:50:27;8.10;82.80
3298;DHT22;1661;53.572;10.174;2024-02-04T09:52:58;8.00;82.70
3298;DHT22;1661;53.572;10.174;2024-02-04T09:55:26;8.10;82.90
3298;DHT22;1661;53.572;10.174;2024-02-04T09:57:53;8.10;83.00
3298;DHT22;1661;53.572;10.174;2024-02-04T10:00:20;8.20;82.50
3298;DHT22;1661;53.572;10.174;2024-02-04T10:02:49;8.20;82.10
3298;DHT22;1661;53.572;10.174;2024-02-04T10:05:16;8.10;82.90
3298;DHT22;1661;53.572;10.174;2024-02-04T10:07:43;8.10;82.80
3298;DHT22;1661;53.572;10.174;2024-02-04T10:10:12;8.20;82.50
3298;DHT22;1661;53.572;10.174;2024-02-04T10:12:39;8.10;82.40
3298;DHT22;1661;53.572;10.174;2024-02-04T10:15:07;8.20;82.30
3298;DHT22;1661;53.572;10.174;2024-02-04T10:17:34;8.20;82.40
3298;DHT22;1661;53.572;10.174;2024-02-04T10:20:01;8.20;82.50
3298;DHT22;1661;53.572;10.174;2024-02-04T10:22:28;8.20;82.50
3298;DHT22;1661;53.572;10.174;2024-02-04T10:25:05;8.20;82.40
3298;DHT22;1661;53.572;10.174;2024-02-04T10:27:34;8.20;82.80
3298;DHT22;1661;53.572;10.174;2024-02-04T10:30:01;8.30;82.30
3298;DHT22;1661;53.572;10.174;2024-02-04T10:32:28;8.30;82.60
3298;DHT22;1661;53.572;10.174;2024-02-04T10:34:55;8.40;82.40
3298;DHT22;1661;53.572;10.174;2024-02-04T10:37:21;8.50;81.80
3298;DHT22;1661;53.572;10.174;2024-02-04T10:39:48;8.50;82.00
3298;DHT22;1661;53.572;10.174;2024-02-04T10:42:15;8.50;82.10
3298;DHT22;1661;53.572;10.174;2024-02-04T10:44:46;8.40;82.30
3298;DHT22;1661;53.572;10.174;2024-02-04T10:47:17;8.40;82.10
3298;DHT22;1661;53.572;10.174;2024-02-04T10:49:50;8.50;82.30
3298;DHT22;1661;53.572;10.174;2024-02-04T10:52:19;8.50;82.10
3298;DHT22;1661;53.572;10.174;2024-02-04T10:54:46;8.50;82.00
3298;DHT22;1661;53.572;10.174;2024-02-04T10:57:21;8.50;82.10
3298;DHT22;1661;53.572;10.174;2024-02-04T10:59:51;8.60;82.10
3298;DHT22;1661;53.572;10.174;2024-02-04T11:02:19;8.60;82.10
3298;DHT22;1661;53.572;10.174;2024-02-04T11:04:48;8.60;82.20
3298;DHT22;1661;53.572;10.174;2024-02-04T11:07:16;8.60;82.10
3298;DHT22;1661;53.572;10.174;2024-02-04T11:09:45;8.60;82.10
3298;DHT22;1661;53.572;10.174;2024-02-04T11:12:15;8.60;81.80
3298;DHT22;1661;53.572;10.174;2024-02-04T11:14:46;8.60;81.90
3298;DHT22;1661;53.572;10.174;2024-02-04T11:17:36;8.60;82.30
3298;DHT22;1661;53.572;10.174;2024-02-04T11:20:18;8.60;81.60
3298;DHT22;1661;53.572;10.174;2024-02-04T11:23:22;8.50;82.40
3298;DHT22;1661;53.572;10.174;2024-02-04T11:25:53;8.60;82.20
3298;DHT22;1661;53.572;10.174;2024-02-04T11:28:21;8.60;82.20
3298;DHT22;1661;53.572;10.174;2024-02-04T11:30:51;8.60;81.30
3298;DHT22;1661;53.572;10.174;2024-02-04T11:33:20;8.60;81.40
3298;DHT22;1661;53.572;10.174;2024-02-04T11:35:57;8.70;81.80
3298;DHT22;1661;53.572;10.174;2024-02-04T11:38:29;8.70;81.40
3298;DHT22;1661;53.572;10.174;2024-02-04T11:40:57;8.70;81.50
3298;DHT22;1661;53.572;10.174;2024-02-04T11:43:24;8.80;81.40
3298;DHT22;1661;53.572;10.174;2024-02-04T11:45:52;8.80;81.40
3298;DHT22;1661;53.572;10.174;2024-02-04T11:48:29;8.80;81.10
3298;DHT22;1661;53.572;10.174;2024-02-04T11:50:57;8.90;81.00
3298;DHT22;1661;53.572;10.174;2024-02-04T11:53:25;8.90;81.00
3298;DHT22;1661;53.572;10.174;2024-02-04T11:55:54;8.90;81.10
3298;DHT22;1661;53.572;10.174;2024-02-04T11:58:21;9.00;81.00
3298;DHT22;1661;53.572;10.174;2024-02-04T12:00:51;9.00;80.80
3298;DHT22;1661;53.572;10.174;2024-02-04T12:03:30;9.00;80.70
3298;DHT22;1661;53.572;10.174;2024-02-04T12:05:57;9.00;81.20
3298;DHT22;1661;53.572;10.174;2024-02-04T12:08:24;9.00;81.50
3298;DHT22;1661;53.572;10.174;2024-02-04T12:10:52;9.00;81.20
3298;DHT22;1661;53.572;10.174;2024-02-04T12:13:19;9.00;80.60
3298;DHT22;1661;53.572;10.174;2024-02-04T12:15:47;9.00;80.70
3298;DHT22;1661;53.572;10.174;2024-02-04T12:18:14;9.00;80.80
3298;DHT22;1661;53.572;10.174;2024-02-04T12:20:47;9.00;80.60
3298;DHT22;1661;53.572;10.174;2024-02-04T12:23:15;8.90;80.90
3298;DHT22;1661;53.572;10.174;2024-02-04T12:25:43;8.90;81.00
3298;DHT22;1661;53.572;10.174;2024-02-04T12:28:10;8.90;80.70
3298;DHT22;1661;53.572;10.174;2024-02-04T12:30:37;9.00;80.10
3298;DHT22;1661;53.572;10.174;2024-02-04T12:33:05;9.00;80.60
3298;DHT22;1661;53.572;10.174;2024-02-04T12:35:32;9.00;80.30
3298;DHT22;1661;53.572;10.174;2024-02-04T12:38:00;9.00;80.10
3298;DHT22;1661;53.572;10.174;2024-02-04T12:40:29;9.10;80.40
3298;DHT22;1661;53.572;10.174;2024-02-04T12:42:56;9.20;80.20
3298;DHT22;1661;53.572;10.174;2024-02-04T12:45:24;9.20;80.20
3298;DHT22;1661;53.572;10.174;2024-02-04T12:47:50;9.20;79.50
3298;DHT22;1661;53.572;10.174;2024-02-04T12:50:18;9.20;79.60
3298;DHT22;1661;53.572;10.174;2024-02-04T12:52:45;9.20;79.90
3298;DHT22;1661;53.572;10.174;2024-02-04T12:55:25;9.20;79.60
3298;DHT22;1661;53.572;10.174;2024-02-04T12:58:01;9.20;79.80
3298;DHT22;1661;53.572;10.174;2024-02-04T13:00:29;9.30;79.90
3298;DHT22;1661;53.572;10.174;2024-02-04T13:02:56;9.30;79.40
3298;DHT22;1661;53.572;10.174;2024-02-04T13:05:22;9.30;79.70
3298;DHT22;1661;53.572;10.174;2024-02-04T13:07:53;9.20;79.50
3298;DHT22;1661;53.572;10.174;2024-02-04T13:10:22;9.20;79.80
3298;DHT22;1661;53.572;10.174;2024-02-04T13:12:59;9.10;79.80
3298;DHT22;1661;53.572;10.174;2024-02-04T13:15:27;9.20;79.80
3298;DHT22;1661;53.572;10.174;2024-02-04T13:17:53;9.20;80.00
3298;DHT22;1661;53.572;10.174;2024-02-04T13:20:20;9.20;79.90
3298;DHT22;1661;53.572;10.174;2024-02-04T13:22:47;9.20;79.80
3298;DHT22;1661;53.572;10.174;2024-02-04T13:25:14;9.20;80.10
3298;DHT22;1661;53.572;10.174;2024-02-04T13:27:41;9.20;80.10
3298;DHT22;1661;53.572;10.174;2024-02-04T13:30:10;9.20;80.10
3298;DHT22;1661;53.572;10.174;2024-02-04T13:32:38;9.20;80.00
3298;DHT22;1661;53.572;10.174;2024-02-04T13:35:06;9.20;80.00
3298;DHT22;1661;53.572;10.174;2024-02-04T13:37:34;9.10;80.20
3298;DHT22;1661;53.572;10.174;2024-02-04T13:40:01;9.20;79.90
3298;DHT22;1661;53.572;10.174;2024-02-04T13:42:28;9.20;79.90
3298;DHT22;1661;53.572;10.174;2024-02-04T13:44:55;9.30;79.90
3298;DHT22;1661;53.572;10.174;2024-02-04T13:47:23;9.40;79.30
3298;DHT22;1661;53.572;10.174;2024-02-04T13:49:50;9.30;79.60
3298;DHT22;1661;53.572;10.174;2024-02-04T13:52:17;9.20;80.00
3298;DHT22;1661;53.572;10.174;2024-02-04T13:54:44;9.20;79.70
3298;DHT22;1661;53.572;10.174;2024-02-04T13:57:10;9.10;80.00
3298;DHT22;1661;53.572;10.174;2024-02-04T13:59:37;9.20;80.20
3298;DHT22;1661;53.572;10.174;2024-02-04T14:02:04;9.20;80.30
3298;DHT22;1661;53.572;10.174;2024-02-04T14:04:35;9.30;80.00
3298;DHT22;1661;53.572;10.174;2024-02-04T14:07:02;9.20;79.80
3298;DHT22;1661;53.572;10.174;2024-02-04T14:09:29;9.10;79.90
3298;DHT22;1661;53.572;10.174;2024-02-04T14:11:57;9.10;81.00
3298;DHT22;1661;53.572;10.174;2024-02-04T14:14:24;9.20;80.50
3298;DHT22;1661;53.572;10.174;2024-02-04T14:16:51;9.20;80.40
3298;DHT22;1661;53.572;10.174;2024-02-04T14:19:18;9.20;80.50
3298;DHT22;1661;53.572;10.174;2024-02-04T14:21:46;9.20;80.70
3298;DHT22;1661;53.572;10.174;2024-02-04T14:24:12;9.20;80.60
3298;DHT22;1661;53.572;10.174;2024-02-04T14:26:39;9.30;80.20
3298;DHT22;1661;53.572;10.174;2024-02-04T14:31:34;9.30;80.40
3298;DHT22;1661;53.572;10.174;2024-02-04T14:34:01;9.30;80.50
3298;DHT22;1661;53.572;10.174;2024-02-04T14:36:28;9.40;80.30
3298;DHT22;1661;53.572;10.174;2024-02-04T14:38:57;9.20;80.30
3298;DHT22;1661;53.572;10.174;2024-02-04T14:41:24;9.20;81.00
3298;DHT22;1661;53.572;10.174;2024-02-04T14:43:50;9.30;80.90
3298;DHT22;1661;53.572;10.174;2024-02-04T14:46:18;9.30;80.50
3298;DHT22;1661;53.572;10.174;2024-02-04T14:48:45;9.20;81.00
3298;DHT22;1661;53.572;10.174;2024-02-04T14:51:12;9.20;81.00
3298;DHT22;1661;53.572;10.174;2024-02-04T14:53:39;9.20;80.90
3298;DHT22;1661;53.572;10.174;2024-02-04T14:56:07;9.30;80.90
3298;DHT22;1661;53.572;10.174;2024-02-04T14:58:36;9.20;80.50
3298;DHT22;1661;53.572;10.174;2024-02-04T15:01:03;9.30;80.60
3298;DHT22;1661;53.572;10.174;2024-02-04T15:03:30;9.30;80.50
3298;DHT22;1661;53.572;10.174;2024-02-04T15:05:57;9.20;80.60
3298;DHT22;1661;53.572;10.174;2024-02-04T15:08:24;9.20;81.00
3298;DHT22;1661;53.572;10.174;2024-02-04T15:10:50;9.30;80.80
3298;DHT22;1661;53.572;10.174;2024-02-04T15:13:19;9.20;81.20
3298;DHT22;1661;53.572;10.174;2024-02-04T15:15:46;9.30;81.10
3298;DHT22;1661;53.572;10.174;2024-02-04T15:18:13;9.40;81.10
3298;DHT22;1661;53.572;10.174;2024-02-04T15:20:41;9.30;80.90
3298;DHT22;1661;53.572;10.174;2024-02-04T15:23:08;9.20;81.60
3298;DHT22;1661;53.572;10.174;2024-02-04T15:25:36;9.30;81.50
3298;DHT22;1661;53.572;10.174;2024-02-04T15:28:04;9.30;81.20
3298;DHT22;1661;53.572;10.174;2024-02-04T15:30:33;9.30;81.50
3298;DHT22;1661;53.572;10.174;2024-02-04T15:33:00;9.40;81.50
3298;DHT22;1661;53.572;10.174;2024-02-04T15:35:28;9.40;81.60
3298;DHT22;1661;53.572;10.174;2024-02-04T15:37:55;9.40;82.30
3298;DHT22;1661;53.572;10.174;2024-02-04T15:40:24;9.40;82.50
3298;DHT22;1661;53.572;10.174;2024-02-04T15:42:50;9.40;82.90
3298;DHT22;1661;53.572;10.174;2024-02-04T15:45:17;9.40;83.10
3298;DHT22;1661;53.572;10.174;2024-02-04T15:47:49;9.10;83.70
3298;DHT22;1661;53.572;10.174;2024-02-04T15:50:18;9.10;84.50
3298;DHT22;1661;53.572;10.174;2024-02-04T15:52:45;9.00;84.90
3298;DHT22;1661;53.572;10.174;2024-02-04T15:55:14;9.10;85.00
3298;DHT22;1661;53.572;10.174;2024-02-04T15:57:43;9.20;84.90
3298;DHT22;1661;53.572;10.174;2024-02-04T16:00:12;9.20;84.80
3298;DHT22;1661;53.572;10.174;2024-02-04T16:02:51;9.20;85.20
3298;DHT22;1661;53.572;10.174;2024-02-04T16:05:19;9.10;85.40
3298;DHT22;1661;53.572;10.174;2024-02-04T16:07:47;9.10;85.70